Sayreville, New Jersey
Current Conditions -  °F | °C
As of 3:55 AM on Wednesday 26 Nov 2014 (Local Time) from KLDJ Reporting Station
Overcast Overcast  
Wind Chill: 50°   Ceiling: 10000
Heat Index: 50°   Visibility: 10mi
Dew Point: 36°   Wind: 6mph
Humidity: 58%   Direction: 350°N
Pressure: 30.19"   Gusts: NA
Location:  40.47°N, 74.36°W
Report Text: KLDJ 260855Z AUTO 35005KT 10SM BKN100 OVC120 10/02 A3019 RMK AO2 T01000020
Loading
Personal Weather Stations






























Interactive Weather Map New forecast layout! Learn more

10-Day Weather Forecast

Advertisements
Track Severe Weather on mobile